Louisbourg, Canada
Current Conditions -  °F | °C
As of 5:16 AM on Saturday 20 Dec 2014 (Local Time) from CYQY Reporting Station
Light Rain Light Rain  
Wind Chill: -5°   Ceiling: 700
Heat Index:   Visibility: 6mi
Dew Point:   Wind: 21mph
Humidity: 93%   Direction: 40°NE
Pressure: 29.98"   Gusts: 29mph
Location:  45.92°N, 59.98°W
Report Text: CYQY 200916Z 04018G25KT 6SM -RA OVC007 01/M00 A2998 RMK ST8 SLP155
Loading
Personal Weather Stations






























Interactive Weather Map New forecast layout! Learn more

10-Day Weather Forecast

Advertisements
Track Severe Weather on mobile